Decoded Metar for KPGV (PITT GREENVILLE in NC, USA) (IATA:PGV) | Meteo·Mobile Aviation Weather
aviador You're here:

KPGV Decoded Metar

PITT GREENVILLE in NC, USA
Report Time2018-09-19 19:50:00
UTC Time2018-09-19 20:13:06
Flight Rules vfr VFR
Wind350° at 05 kt
W.Decomp.*RWY 02: 4.7 kt HW 1.8 kt LCW
RWY 33: 4.4 kt HW 2.4 kt RCW
RWY 08: 0.8 kt HW 4.9 kt LCW
W.Rank350° ranks 13
Current wind is below 350° avg. (5.8)
Visibility9999 m
Phenomena:N/A
Clouds:Scattered 045 Hf
Expected CloudBase > 4,400 ft AGL from Temp-Dew spread
CeilingNone
Temp31°C (ISA +16)
Dew Point20°C (52% RH)
Heat Index33.0°C
QNH1014 hPa
Density Alt2,136 ft
Elevation26 ft
Report Wrong Elevation
Raw Report
METAR KPGV 191950Z AUTO 35005KT 10SM SCT045 31/20 A2994 RMK AO2=

Extra information for KPGV:More info

Metar Taf Metar & Taf Last 4 Metars F.Rules Stats Wind Profile Meteogram Temp Stats Airport Information Weather charts Add Link Nearby VenuesMetar ALERT Operation Metar Decoded Social comments

AIRNAV info for KPGV